Time;durP1;ratioP1;P1;durP2;ratioP2;P2;SDS_P1;SDS_P2;PMS_P1;PMS_P2;Temp;Humidity;BMP_temperature;BMP_pressure;BME280_temperature;BME280_humidity;BME280_pressure;Samples;Min_cycle;Max_cycle;Signal;HPM_P1;HPM_P2
2022/12/10 00:01:35;;;;;;;34.67;21.90;;;1.70;99.90;;;;;;5014058;28;20206;-78
2022/12/10 00:04:02;;;;;;;37.30;23.80;;;1.60;99.90;;;;;;5014659;28;20221;-78
2022/12/10 00:06:32;;;;;;;39.60;22.40;;;1.60;99.90;;;;;;4994155;28;20223;-78
2022/12/10 00:09:00;;;;;;;39.65;21.40;;;1.60;99.90;;;;;;5009377;28;20212;-77
2022/12/10 00:11:27;;;;;;;40.45;23.73;;;1.60;99.90;;;;;;5012136;28;20587;-78
2022/12/10 00:13:55;;;;;;;45.97;23.77;;;1.60;99.90;;;;;;5011960;28;20570;-78
2022/12/10 00:16:24;;;;;;;39.10;22.33;;;1.60;99.90;;;;;;5012593;28;20248;-79
2022/12/10 00:18:52;;;;;;;40.65;21.88;;;1.60;99.90;;;;;;5014215;28;20446;-78
2022/12/10 00:21:22;;;;;;;41.97;23.35;;;1.50;99.90;;;;;;5012330;28;20576;-78
2022/12/10 00:23:49;;;;;;;34.63;22.55;;;1.50;99.90;;;;;;5012513;28;20596;-77
2022/12/10 00:26:18;;;;;;;38.10;20.27;;;1.50;99.90;;;;;;5012092;28;20223;-78
2022/12/10 00:28:46;;;;;;;38.08;22.17;;;1.50;99.90;;;;;;5011831;28;20447;-78
2022/12/10 00:31:17;;;;;;;43.08;23.58;;;1.50;99.90;;;;;;5012033;28;20231;-77
2022/12/10 00:33:45;;;;;;;39.80;24.15;;;1.40;99.90;;;;;;5011917;28;20229;-78
2022/12/10 00:36:14;;;;;;;41.45;23.25;;;1.50;99.90;;;;;;5010678;28;20710;-78
2022/12/10 00:38:41;;;;;;;37.88;21.60;;;1.50;99.90;;;;;;5011128;28;20674;-77
2022/12/10 00:41:09;;;;;;;36.00;20.80;;;1.50;99.90;;;;;;5012291;28;20257;-77
2022/12/10 00:43:36;;;;;;;31.75;20.52;;;1.50;99.90;;;;;;5013384;28;20191;-78
2022/12/10 00:46:03;;;;;;;36.97;21.83;;;1.50;99.90;;;;;;5015739;28;20336;-78
2022/12/10 00:48:31;;;;;;;38.65;23.33;;;1.50;99.90;;;;;;5015006;28;20203;-78
2022/12/10 00:51:01;;;;;;;40.65;21.73;;;1.50;99.90;;;;;;5015877;28;20216;-78
2022/12/10 00:53:29;;;;;;;41.90;23.30;;;1.50;99.90;;;;;;5015128;28;20314;-79
2022/12/10 00:55:57;;;;;;;38.97;21.45;;;1.40;99.90;;;;;;5019351;28;20652;-79
2022/12/10 00:58:24;;;;;;;38.65;21.50;;;1.40;99.90;;;;;;5022989;28;20286;-79
2022/12/10 01:00:51;;;;;;;37.45;20.42;;;1.40;99.90;;;;;;5014605;28;20207;-78
2022/12/10 01:03:18;;;;;;;41.30;23.23;;;1.30;99.90;;;;;;5015058;28;20205;-78
2022/12/10 01:05:46;;;;;;;41.53;23.65;;;1.30;99.90;;;;;;5015032;28;20225;-78
2022/12/10 01:08:13;;;;;;;33.40;20.00;;;1.30;99.90;;;;;;5014597;28;20210;-77
2022/12/10 01:10:40;;;;;;;39.45;22.52;;;1.20;99.90;;;;;;5015067;28;20206;-78
2022/12/10 01:13:06;;;;;;;41.60;22.60;;;1.20;99.90;;;;;;5014226;28;20225;-79
2022/12/10 01:15:38;;;;;;;40.80;22.10;;;1.20;99.90;;;;;;5014269;28;20703;-78
2022/12/10 01:18:05;;;;;;;34.83;19.42;;;1.20;99.90;;;;;;5014718;28;20233;-78
2022/12/10 01:20:36;;;;;;;40.72;24.15;;;1.20;99.90;;;;;;5017521;28;20214;-77
2022/12/10 01:23:04;;;;;;;40.38;22.75;;;1.10;99.90;;;;;;5019396;28;20202;-77
2022/12/10 01:25:31;;;;;;;37.42;22.50;;;1.10;99.90;;;;;;5017523;28;20223;-78
2022/12/10 01:27:58;;;;;;;45.25;23.38;;;1.20;99.90;;;;;;5014410;28;20229;-77
2022/12/10 01:30:25;;;;;;;37.08;22.00;;;1.10;99.90;;;;;;5013965;28;20257;-77
2022/12/10 01:32:52;;;;;;;37.85;21.65;;;1.10;99.90;;;;;;5014635;28;20243;-78
2022/12/10 01:35:18;;;;;;;36.35;21.13;;;1.00;99.90;;;;;;5013605;28;20309;-76
2022/12/10 01:37:45;;;;;;;39.22;22.40;;;1.00;99.90;;;;;;5012831;28;20212;-77
2022/12/10 01:40:14;;;;;;;37.90;20.45;;;1.10;99.90;;;;;;5012084;28;20203;-78
2022/12/10 01:42:40;;;;;;;39.35;22.63;;;1.10;99.90;;;;;;5013653;28;20206;-78
2022/12/10 01:45:11;;;;;;;38.08;20.25;;;1.10;99.90;;;;;;5013038;28;20765;-78
2022/12/10 01:47:38;;;;;;;40.22;23.00;;;1.10;99.90;;;;;;5014455;28;20206;-78
2022/12/10 01:50:07;;;;;;;38.42;22.20;;;1.10;99.90;;;;;;5013651;28;20692;-76
2022/12/10 01:52:34;;;;;;;40.42;25.05;;;1.20;99.90;;;;;;5013886;28;20232;-78
2022/12/10 01:55:01;;;;;;;37.50;22.33;;;1.30;99.90;;;;;;5012822;28;20230;-77
2022/12/10 01:57:30;;;;;;;38.10;22.10;;;1.30;99.90;;;;;;5014481;28;20300;-77
2022/12/10 01:59:59;;;;;;;38.30;21.17;;;1.30;99.90;;;;;;5013897;28;20260;-79
2022/12/10 02:02:40;;;;;;;46.80;25.92;;;1.30;99.90;;;;;;5014839;28;20205;-77
2022/12/10 02:05:15;;;;;;;35.17;20.05;;;1.20;99.90;;;;;;5013995;28;20228;-76
2022/12/10 02:07:53;;;;;;;40.13;21.98;;;1.30;99.90;;;;;;5014353;28;20256;-78
2022/12/10 02:10:30;;;;;;;35.38;21.70;;;1.30;99.90;;;;;;5014013;28;20301;-78
2022/12/10 02:13:05;;;;;;;37.22;21.50;;;1.40;99.90;;;;;;5014333;28;20220;-80
2022/12/10 02:15:36;;;;;;;38.03;22.20;;;1.50;99.90;;;;;;5013907;28;20229;-77
2022/12/10 02:18:07;;;;;;;34.33;22.90;;;1.50;99.90;;;;;;5013852;28;20228;-76
2022/12/10 02:20:39;;;;;;;41.73;21.83;;;1.60;99.90;;;;;;5013897;28;20228;-78
2022/12/10 02:23:10;;;;;;;41.00;21.60;;;1.60;99.90;;;;;;5014158;28;20956;-77
2022/12/10 02:25:42;;;;;;;46.22;23.50;;;1.60;99.90;;;;;;5014014;28;20250;-78
2022/12/10 02:28:18;;;;;;;40.38;24.00;;;1.70;99.90;;;;;;5013700;28;20203;-78
2022/12/10 02:30:49;;;;;;;39.45;21.40;;;1.70;99.90;;;;;;5013629;28;20208;-77
2022/12/10 02:33:18;;;;;;;35.92;22.00;;;1.70;99.90;;;;;;5021527;28;20824;-79
2022/12/10 02:35:47;;;;;;;34.67;21.02;;;1.70;99.90;;;;;;5013835;28;20219;-78
2022/12/10 02:38:18;;;;;;;39.42;21.80;;;1.70;99.90;;;;;;5013285;28;20294;-79
2022/12/10 02:40:49;;;;;;;37.67;20.83;;;1.70;99.90;;;;;;5014481;28;20236;-79
2022/12/10 02:43:17;;;;;;;36.40;20.70;;;1.70;99.90;;;;;;5012786;28;20555;-79
2022/12/10 02:45:47;;;;;;;39.03;21.97;;;1.70;99.90;;;;;;5016944;28;20860;-79
2022/12/10 02:48:14;;;;;;;33.70;21.25;;;1.70;99.90;;;;;;5013688;28;20454;-77
2022/12/10 02:50:41;;;;;;;32.67;19.67;;;1.80;99.90;;;;;;5013539;28;20684;-78
2022/12/10 02:53:08;;;;;;;34.23;19.50;;;1.70;99.90;;;;;;5013091;28;20842;-77
2022/12/10 02:55:59;;;;;;;36.10;21.03;;;1.70;99.90;;;;;;5013250;28;20531;-79
2022/12/10 02:58:32;;;;;;;35.88;21.55;;;1.80;99.90;;;;;;5013390;28;20461;-78
2022/12/10 03:01:08;;;;;;;34.17;20.85;;;1.80;99.90;;;;;;5013550;28;20593;-79
2022/12/10 03:03:44;;;;;;;36.67;24.57;;;1.80;99.90;;;;;;5013386;28;20208;-78
2022/12/10 03:06:16;;;;;;;33.40;20.80;;;1.90;99.90;;;;;;5012463;28;20881;-79
2022/12/10 03:08:48;;;;;;;37.47;20.92;;;1.90;99.90;;;;;;5013680;28;20434;-79
2022/12/10 03:11:17;;;;;;;34.83;20.10;;;1.90;99.90;;;;;;5012663;28;20209;-78
2022/12/10 03:13:52;;;;;;;31.80;19.10;;;1.90;99.90;;;;;;5012853;28;20485;-79
2022/12/10 03:16:22;;;;;;;34.60;22.57;;;1.90;99.90;;;;;;5011773;28;20854;-78
2022/12/10 03:18:55;;;;;;;35.15;19.73;;;1.90;99.90;;;;;;5013931;28;20534;-78
2022/12/10 03:21:25;;;;;;;31.98;20.20;;;2.00;99.90;;;;;;5012177;28;20570;-79
2022/12/10 03:23:52;;;;;;;34.42;21.00;;;1.90;99.90;;;;;;5012538;28;20675;-78
2022/12/10 03:26:21;;;;;;;35.17;19.93;;;2.00;99.90;;;;;;5008435;28;20218;-77
2022/12/10 03:28:53;;;;;;;34.13;20.23;;;2.00;99.90;;;;;;5008488;28;20453;-79
2022/12/10 03:31:22;;;;;;;29.60;20.77;;;2.10;99.90;;;;;;5012270;28;20801;-78
2022/12/10 03:33:49;;;;;;;34.97;21.77;;;2.10;99.90;;;;;;5024821;28;20484;-78
2022/12/10 03:36:18;;;;;;;35.43;21.27;;;2.10;99.90;;;;;;5013235;28;20229;-80
2022/12/10 03:38:45;;;;;;;29.90;18.52;;;2.10;99.90;;;;;;5012158;28;20449;-78
2022/12/10 03:41:11;;;;;;;33.25;19.23;;;2.10;99.90;;;;;;5012091;28;20302;-78
2022/12/10 03:43:51;;;;;;;37.70;20.10;;;2.20;99.90;;;;;;5018901;28;20219;-80
2022/12/10 03:46:18;;;;;;;32.35;18.95;;;2.10;99.90;;;;;;5017281;28;21011;-79
2022/12/10 03:48:46;;;;;;;31.87;19.13;;;2.20;99.90;;;;;;5011403;28;20706;-79
2022/12/10 03:51:13;;;;;;;34.10;19.97;;;2.20;99.90;;;;;;4992566;28;20425;-77
2022/12/10 03:53:40;;;;;;;35.55;19.05;;;2.20;99.90;;;;;;4992291;28;20572;-77
2022/12/10 03:56:07;;;;;;;29.77;18.53;;;2.10;99.90;;;;;;5011094;28;20598;-79
2022/12/10 03:58:34;;;;;;;35.87;20.53;;;2.20;99.90;;;;;;5011267;28;20809;-77
2022/12/10 04:01:01;;;;;;;29.47;17.63;;;2.20;99.90;;;;;;5011757;28;20507;-78
2022/12/10 04:03:28;;;;;;;27.27;16.03;;;2.20;99.90;;;;;;5011665;28;20449;-76
2022/12/10 04:06:02;;;;;;;25.40;16.50;;;2.20;99.90;;;;;;5011213;28;20478;-77
2022/12/10 04:08:29;;;;;;;28.33;18.07;;;2.20;99.90;;;;;;5011592;28;20540;-78
2022/12/10 04:10:56;;;;;;;28.30;17.50;;;2.30;99.90;;;;;;5011815;28;21136;-78
2022/12/10 04:18:53;;;;;;;27.47;16.60;;;2.30;99.90;;;;;;5007343;28;20214;-77
2022/12/10 04:27:10;;;;;;;28.23;17.27;;;2.30;99.90;;;;;;4974358;28;20530;-79
2022/12/10 04:29:37;;;;;;;23.55;15.70;;;2.30;99.90;;;;;;4999673;28;20456;-78
2022/12/10 04:32:05;;;;;;;25.57;16.00;;;2.30;99.90;;;;;;5015452;28;20203;-77
2022/12/10 04:34:32;;;;;;;25.73;15.20;;;2.30;99.90;;;;;;5015073;28;20580;-79
2022/12/10 04:37:01;;;;;;;21.90;14.13;;;2.30;99.90;;;;;;5015480;28;20453;-79
2022/12/10 04:39:28;;;;;;;22.10;14.53;;;2.30;99.90;;;;;;5015221;28;20460;-78
2022/12/10 04:41:54;;;;;;;25.37;15.60;;;2.40;99.90;;;;;;5015676;28;20428;-78
2022/12/10 04:44:21;;;;;;;27.33;15.77;;;2.40;99.90;;;;;;5014548;28;20842;-79
2022/12/10 04:46:49;;;;;;;25.67;16.17;;;2.30;99.90;;;;;;5014698;28;20466;-78
2022/12/10 04:49:16;;;;;;;29.03;17.30;;;2.30;99.90;;;;;;5014563;28;20816;-76
2022/12/10 04:51:43;;;;;;;30.27;15.57;;;2.30;99.90;;;;;;5014910;28;20465;-77
2022/12/10 04:54:12;;;;;;;24.17;15.45;;;2.30;99.90;;;;;;5014439;28;20496;-77
2022/12/10 04:56:38;;;;;;;22.67;14.87;;;2.30;99.90;;;;;;5006969;28;20252;-78
2022/12/10 04:59:05;;;;;;;21.97;13.20;;;2.20;99.90;;;;;;5014853;28;20481;-77
2022/12/10 05:01:33;;;;;;;20.70;14.50;;;2.20;99.90;;;;;;5014290;28;20457;-78
2022/12/10 05:04:01;;;;;;;24.63;14.87;;;2.30;99.90;;;;;;5014758;28;20475;-79
2022/12/10 05:06:28;;;;;;;23.57;13.70;;;2.30;99.90;;;;;;5012787;28;20473;-78
2022/12/10 05:08:55;;;;;;;23.17;13.97;;;2.20;99.90;;;;;;5009013;28;20830;-76
2022/12/10 05:11:25;;;;;;;19.17;13.00;;;2.20;99.90;;;;;;5014573;28;20461;-78
2022/12/10 05:13:53;;;;;;;26.00;14.20;;;2.20;99.90;;;;;;5014303;28;20501;-78
2022/12/10 05:16:21;;;;;;;24.53;14.73;;;2.30;99.90;;;;;;5014149;28;20473;-78
2022/12/10 05:18:48;;;;;;;19.53;13.20;;;2.30;99.90;;;;;;5014063;28;21104;-79
2022/12/10 05:21:16;;;;;;;22.63;13.80;;;2.30;99.90;;;;;;5014540;28;20942;-77
2022/12/10 05:23:44;;;;;;;19.37;12.40;;;2.30;99.90;;;;;;5014311;28;20449;-78
2022/12/10 05:26:13;;;;;;;21.23;12.97;;;2.20;99.90;;;;;;5014413;28;20476;-78
2022/12/10 05:28:43;;;;;;;17.45;11.50;;;2.10;99.90;;;;;;5013899;28;20472;-78
2022/12/10 05:31:13;;;;;;;21.47;13.53;;;2.10;99.90;;;;;;5014425;28;20206;-78
2022/12/10 05:33:40;;;;;;;22.00;13.60;;;2.10;99.90;;;;;;5014337;28;20846;-78
2022/12/10 05:36:08;;;;;;;21.83;14.07;;;2.00;99.90;;;;;;5014113;28;20227;-78
2022/12/10 05:38:35;;;;;;;19.30;11.53;;;2.00;99.90;;;;;;5013844;28;20540;-78
2022/12/10 05:41:03;;;;;;;16.50;10.50;;;2.00;99.90;;;;;;5014220;28;20472;-77
2022/12/10 05:43:30;;;;;;;19.77;12.40;;;1.80;99.90;;;;;;5013742;28;20446;-78
2022/12/10 05:46:01;;;;;;;17.50;11.50;;;1.80;99.90;;;;;;5013531;28;20241;-78
2022/12/10 05:48:28;;;;;;;21.58;13.70;;;1.70;99.90;;;;;;5013831;28;20212;-78
2022/12/10 05:50:55;;;;;;;22.07;12.90;;;1.60;99.90;;;;;;5013992;28;20220;-78
2022/12/10 05:53:22;;;;;;;20.20;12.77;;;1.50;99.90;;;;;;5013584;28;20489;-79
2022/12/10 05:55:49;;;;;;;18.23;13.20;;;1.40;99.90;;;;;;5013800;28;20749;-77
2022/12/10 05:58:16;;;;;;;23.33;13.50;;;1.30;99.90;;;;;;5013964;28;20463;-78
2022/12/10 06:00:43;;;;;;;17.40;12.43;;;1.20;99.90;;;;;;5014433;28;20452;-78
2022/12/10 06:03:11;;;;;;;19.63;13.45;;;1.10;99.90;;;;;;5013878;28;20209;-78
2022/12/10 06:05:39;;;;;;;21.33;13.57;;;1.00;99.90;;;;;;5014121;28;20708;-78
2022/12/10 06:08:06;;;;;;;22.63;14.70;;;0.90;99.90;;;;;;5013580;28;20207;-78
2022/12/10 06:10:35;;;;;;;22.23;13.15;;;0.90;99.90;;;;;;5018011;28;20293;-78
2022/12/10 06:13:01;;;;;;;20.75;12.65;;;0.80;99.90;;;;;;5017249;28;20214;-78
2022/12/10 06:15:28;;;;;;;20.63;12.10;;;0.70;99.90;;;;;;5018077;28;20236;-77
2022/12/10 06:17:55;;;;;;;19.83;13.38;;;0.60;99.90;;;;;;5017362;28;20212;-79
2022/12/10 06:20:24;;;;;;;20.23;13.85;;;0.60;99.90;;;;;;5014578;28;20212;-78
2022/12/10 06:22:51;;;;;;;19.95;12.60;;;0.50;99.90;;;;;;5016860;28;20217;-78
2022/12/10 06:25:18;;;;;;;17.02;11.38;;;0.50;99.90;;;;;;5013954;28;20228;-78
2022/12/10 06:27:45;;;;;;;19.85;13.30;;;0.50;99.90;;;;;;5014274;28;20213;-77
2022/12/10 06:30:12;;;;;;;21.55;13.05;;;0.40;99.90;;;;;;5021102;28;20216;-76
2022/12/10 06:32:40;;;;;;;23.17;14.23;;;0.30;99.90;;;;;;5012815;28;20572;-79
2022/12/10 06:35:07;;;;;;;21.75;13.35;;;0.30;99.90;;;;;;5013188;28;20322;-78
2022/12/10 06:37:35;;;;;;;22.10;13.80;;;0.30;99.90;;;;;;5013472;28;20209;-79
2022/12/10 06:40:02;;;;;;;24.05;13.63;;;0.20;99.90;;;;;;5013232;28;20212;-77
2022/12/10 06:42:29;;;;;;;22.85;14.00;;;0.20;99.90;;;;;;5012575;28;20217;-79
2022/12/10 06:44:56;;;;;;;21.70;14.23;;;0.20;99.90;;;;;;5012525;28;20234;-77
2022/12/10 06:47:23;;;;;;;25.05;13.25;;;0.20;99.90;;;;;;5013239;28;20220;-78
2022/12/10 06:49:50;;;;;;;18.52;13.40;;;0.10;99.90;;;;;;5012592;28;20210;-78
2022/12/10 06:52:17;;;;;;;23.42;14.55;;;0.10;99.90;;;;;;5012689;28;20207;-78
2022/12/10 06:54:45;;;;;;;26.75;15.95;;;-0.10;99.90;;;;;;5012539;28;20233;-78
2022/12/10 06:57:12;;;;;;;25.83;15.63;;;-0.10;99.90;;;;;;5012638;28;20220;-77
2022/12/10 06:59:39;;;;;;;22.92;16.30;;;-0.10;99.90;;;;;;5012212;28;20208;-78
2022/12/10 07:02:06;;;;;;;25.50;14.43;;;-0.10;99.90;;;;;;5012878;28;20220;-78
2022/12/10 07:04:32;;;;;;;22.80;13.75;;;-0.10;99.90;;;;;;5012565;28;20597;-77
2022/12/10 07:06:59;;;;;;;27.80;15.43;;;-0.10;99.90;;;;;;5012583;28;20208;-78
2022/12/10 07:09:26;;;;;;;24.58;15.85;;;0.00;99.90;;;;;;5012227;28;20224;-76
2022/12/10 07:11:55;;;;;;;27.70;14.52;;;0.00;99.90;;;;;;5009968;28;20221;-79
2022/12/10 07:14:21;;;;;;;21.52;13.05;;;-0.20;99.90;;;;;;5008179;28;20310;-78
2022/12/10 07:16:48;;;;;;;24.95;14.40;;;-0.10;99.90;;;;;;5008302;28;20225;-78
2022/12/10 07:19:15;;;;;;;22.67;12.55;;;-0.10;99.90;;;;;;5011862;28;20681;-78
2022/12/10 07:21:43;;;;;;;21.92;13.07;;;-0.10;99.90;;;;;;5010547;28;20232;-78
2022/12/10 07:24:13;;;;;;;23.75;13.60;;;-0.10;99.90;;;;;;5008496;28;20295;-77
2022/12/10 07:26:43;;;;;;;19.88;12.35;;;-0.10;99.90;;;;;;5009970;28;20230;-77
2022/12/10 07:29:14;;;;;;;19.98;13.30;;;-0.10;99.90;;;;;;5011257;28;20205;-78
2022/12/10 07:31:42;;;;;;;23.40;15.43;;;-0.10;99.90;;;;;;5005425;28;20281;-79
2022/12/10 07:34:10;;;;;;;25.40;14.05;;;-0.20;99.90;;;;;;5008818;28;20236;-77
2022/12/10 07:36:36;;;;;;;25.48;14.10;;;-0.20;99.90;;;;;;5005693;28;20222;-78
2022/12/10 07:39:06;;;;;;;31.63;17.05;;;-0.20;99.90;;;;;;5010788;28;20212;-76
2022/12/10 07:41:33;;;;;;;26.60;15.02;;;-0.20;99.90;;;;;;5011076;28;20202;-80
2022/12/10 07:43:59;;;;;;;26.23;14.13;;;-0.20;99.90;;;;;;5017825;28;20200;-78
2022/12/10 07:46:30;;;;;;;27.77;16.73;;;-0.20;99.90;;;;;;5014242;28;20236;-76
2022/12/10 07:49:00;;;;;;;29.70;17.00;;;-0.20;99.90;;;;;;5006246;28;20211;-78
2022/12/10 07:51:26;;;;;;;27.35;16.58;;;-0.10;99.90;;;;;;5005111;28;20213;-76
2022/12/10 07:53:54;;;;;;;33.15;17.15;;;-0.10;99.90;;;;;;5006530;28;20236;-78
2022/12/10 07:56:22;;;;;;;26.40;16.35;;;-0.10;99.90;;;;;;5011329;28;20231;-77
2022/12/10 07:58:49;;;;;;;29.88;18.10;;;0.00;99.90;;;;;;4999584;28;20316;-77
2022/12/10 08:01:22;;;;;;;28.85;18.52;;;0.00;99.90;;;;;;5009791;28;20212;-77
2022/12/10 08:03:50;;;;;;;29.95;18.58;;;0.10;99.90;;;;;;5012116;28;20212;-78
2022/12/10 08:06:19;;;;;;;30.25;18.98;;;0.10;99.90;;;;;;5011262;28;20219;-78
2022/12/10 08:08:47;;;;;;;37.67;21.95;;;0.00;99.90;;;;;;5011775;28;20210;-77
2022/12/10 08:11:15;;;;;;;36.70;19.55;;;0.10;99.90;;;;;;5011623;28;20601;-76
2022/12/10 08:13:43;;;;;;;35.60;19.02;;;0.30;99.90;;;;;;5011550;28;20305;-78
2022/12/10 08:16:14;;;;;;;44.83;23.05;;;0.20;99.90;;;;;;5010939;28;20234;-77
2022/12/10 08:18:41;;;;;;;46.90;24.30;;;0.30;99.90;;;;;;5011260;28;20188;-77
2022/12/10 08:21:11;;;;;;;51.40;24.23;;;0.40;99.90;;;;;;5011337;28;20561;-77
2022/12/10 08:23:39;;;;;;;57.85;25.77;;;0.50;99.90;;;;;;5011655;28;20197;-76
2022/12/10 08:26:07;;;;;;;49.55;24.20;;;0.60;99.90;;;;;;5011174;28;20220;-77
2022/12/10 08:28:35;;;;;;;51.38;24.70;;;0.80;99.90;;;;;;5011018;28;20249;-78
2022/12/10 08:31:02;;;;;;;47.92;24.17;;;0.80;99.90;;;;;;5011225;28;20219;-76
2022/12/10 08:33:28;;;;;;;46.15;23.10;;;0.70;99.90;;;;;;5011446;28;20209;-77
2022/12/10 08:35:58;;;;;;;50.45;25.00;;;0.80;99.90;;;;;;5011358;28;20231;-76
2022/12/10 08:38:26;;;;;;;46.47;22.90;;;0.80;99.90;;;;;;5018765;28;20198;-77
2022/12/10 08:40:53;;;;;;;46.05;22.98;;;0.80;99.90;;;;;;5011337;28;20598;-77
2022/12/10 08:43:20;;;;;;;53.03;25.98;;;0.80;99.90;;;;;;5011038;28;20207;-77
2022/12/10 08:45:47;;;;;;;50.38;24.52;;;0.90;99.90;;;;;;5011048;28;20245;-77
2022/12/10 08:48:13;;;;;;;47.22;24.35;;;0.90;99.90;;;;;;5010909;28;20206;-75
2022/12/10 08:50:40;;;;;;;47.00;24.08;;;1.00;99.90;;;;;;5011528;28;20213;-79
2022/12/10 08:53:07;;;;;;;46.50;23.45;;;0.80;99.90;;;;;;5011152;28;20210;-77
2022/12/10 08:55:39;;;;;;;50.25;24.63;;;0.90;99.90;;;;;;5011206;28;20234;-77
2022/12/10 08:58:06;;;;;;;51.65;22.25;;;0.80;99.90;;;;;;5010724;28;20659;-76
2022/12/10 09:00:33;;;;;;;37.00;19.40;;;0.80;99.90;;;;;;5011630;28;20212;-80
2022/12/10 09:03:00;;;;;;;51.58;24.38;;;0.80;99.90;;;;;;5010847;28;20209;-77
2022/12/10 09:05:26;;;;;;;53.33;25.00;;;0.70;99.90;;;;;;5014439;28;20248;-75
2022/12/10 09:07:53;;;;;;;51.40;23.60;;;0.70;99.90;;;;;;5014613;28;20600;-79
2022/12/10 09:10:21;;;;;;;48.05;23.45;;;0.70;99.90;;;;;;5015185;28;20206;-78
2022/12/10 09:12:49;;;;;;;56.33;24.88;;;0.70;99.90;;;;;;5009368;28;20230;-75
2022/12/10 09:15:16;;;;;;;54.92;24.25;;;0.70;99.90;;;;;;5014691;28;20610;-76
2022/12/10 09:17:43;;;;;;;55.88;25.55;;;0.90;99.90;;;;;;5015033;28;20202;-76
2022/12/10 09:20:10;;;;;;;47.00;22.50;;;0.90;99.90;;;;;;5021037;23;20330;-80
2022/12/10 09:22:37;;;;;;;46.15;25.08;;;0.80;99.90;;;;;;4985821;28;20458;-80
2022/12/10 09:25:05;;;;;;;45.35;22.20;;;0.80;99.90;;;;;;4981473;28;20206;-80
2022/12/10 09:27:32;;;;;;;38.83;23.77;;;0.90;99.90;;;;;;4978758;28;20215;-80
2022/12/10 09:30:01;;;;;;;49.05;23.45;;;0.90;99.90;;;;;;4980605;28;20224;-80
2022/12/10 09:32:27;;;;;;;45.72;24.67;;;1.00;99.90;;;;;;4979437;28;20703;-79
2022/12/10 09:34:55;;;;;;;44.05;22.15;;;1.10;99.90;;;;;;4972532;28;20229;-80
2022/12/10 09:37:21;;;;;;;49.25;24.00;;;0.90;99.90;;;;;;4977658;28;21036;-79
2022/12/10 09:39:48;;;;;;;41.90;21.95;;;1.00;99.90;;;;;;4973206;28;20224;-79
2022/12/10 09:42:33;;;;;;;43.22;21.85;;;1.00;99.90;;;;;;4975413;28;20732;-78
2022/12/10 09:45:06;;;;;;;42.78;24.45;;;1.10;99.90;;;;;;4973636;28;20201;-79
2022/12/10 09:47:37;;;;;;;48.78;24.30;;;1.20;99.90;;;;;;4979295;28;20595;-79
2022/12/10 09:50:16;;;;;;;37.75;21.67;;;1.20;99.90;;;;;;4979725;28;20326;-79
2022/12/10 09:52:47;;;;;;;42.90;21.67;;;1.20;99.90;;;;;;4978961;28;20204;-79
2022/12/10 09:55:17;;;;;;;41.55;22.45;;;1.30;99.90;;;;;;4978986;28;20223;-79
2022/12/10 09:57:47;;;;;;;48.47;23.10;;;1.40;99.90;;;;;;4976083;28;20211;-79
2022/12/10 10:00:22;;;;;;;48.45;22.55;;;1.60;99.90;;;;;;4964241;28;20311;-80
2022/12/10 10:02:51;;;;;;;43.05;21.67;;;1.60;99.90;;;;;;4977025;28;20203;-79
2022/12/10 10:05:23;;;;;;;42.90;21.45;;;1.50;99.90;;;;;;4968104;28;20232;-80
2022/12/10 10:07:54;;;;;;;48.75;25.48;;;1.50;99.90;;;;;;4959755;28;20208;-80
2022/12/10 10:10:25;;;;;;;43.75;23.45;;;1.50;99.90;;;;;;4976174;28;20705;-80
2022/12/10 10:12:54;;;;;;;52.22;24.00;;;1.40;99.90;;;;;;4978455;28;20291;-80
2022/12/10 10:15:26;;;;;;;43.57;25.20;;;1.30;99.90;;;;;;4977753;28;20226;-80
2022/12/10 10:17:56;;;;;;;44.88;23.60;;;1.20;99.90;;;;;;4978900;28;20463;-80
2022/12/10 10:20:23;;;;;;;42.60;22.00;;;1.30;99.90;;;;;;4978490;28;20232;-80
2022/12/10 10:22:51;;;;;;;43.22;22.88;;;1.30;99.90;;;;;;4978984;28;20246;-80
2022/12/10 10:25:19;;;;;;;47.95;23.40;;;1.30;99.90;;;;;;4977969;28;20284;-80
2022/12/10 10:27:46;;;;;;;47.88;24.42;;;1.30;99.90;;;;;;4978846;28;20208;-80
2022/12/10 10:30:17;;;;;;;51.58;25.05;;;1.40;99.90;;;;;;4970478;28;20616;-80
2022/12/10 10:32:51;;;;;;;59.20;27.92;;;1.50;99.90;;;;;;4958816;28;20268;-80
2022/12/10 10:35:28;;;;;;;51.28;25.70;;;1.60;99.90;;;;;;4973456;28;20223;-80
2022/12/10 10:38:00;;;;;;;54.70;27.70;;;1.60;99.90;;;;;;4973798;28;20576;-78
2022/12/10 10:40:30;;;;;;;58.90;26.25;;;1.40;99.90;;;;;;4967835;28;20217;-79
2022/12/10 10:42:59;;;;;;;54.50;26.73;;;1.50;99.90;;;;;;4973178;28;20219;-79
2022/12/10 10:45:36;;;;;;;51.53;26.90;;;1.50;99.90;;;;;;4978061;28;20261;-78
2022/12/10 10:48:12;;;;;;;58.47;27.48;;;1.40;99.90;;;;;;4975785;28;21047;-79
2022/12/10 10:50:41;;;;;;;53.95;26.75;;;1.40;99.90;;;;;;4970815;28;20226;-79
2022/12/10 10:53:42;;;;;;;62.50;28.27;;;1.50;99.90;;;;;;4976835;28;20230;-79
2022/12/10 10:56:16;;;;;;;59.50;28.48;;;1.50;99.90;;;;;;4935782;28;20233;-79
2022/12/10 10:58:51;;;;;;;52.80;27.67;;;1.50;99.90;;;;;;4970531;28;20203;-79
2022/12/10 11:01:18;;;;;;;47.93;26.70;;;1.50;99.90;;;;;;4972844;28;20592;-79
2022/12/10 11:03:50;;;;;;;64.68;29.15;;;1.60;99.90;;;;;;4971687;28;20459;-79
2022/12/10 11:06:17;;;;;;;48.88;25.15;;;1.60;99.90;;;;;;4979501;28;20207;-81
2022/12/10 11:08:47;;;;;;;63.58;28.73;;;1.80;99.90;;;;;;4968897;28;20246;-80
2022/12/10 11:11:19;;;;;;;59.05;28.67;;;1.70;99.90;;;;;;4977974;28;20207;-81
2022/12/10 11:13:47;;;;;;;57.70;30.50;;;1.60;99.90;;;;;;4978151;28;20219;-80
2022/12/10 11:16:19;;;;;;;60.53;29.58;;;1.80;99.90;;;;;;4977869;28;20218;-80
2022/12/10 11:18:57;;;;;;;60.08;31.67;;;1.90;99.90;;;;;;4975460;28;20258;-79
2022/12/10 11:21:24;;;;;;;55.17;27.97;;;1.90;99.90;;;;;;4973716;28;20205;-79
2022/12/10 11:23:54;;;;;;;54.23;27.90;;;1.90;99.90;;;;;;4976430;28;20459;-79
2022/12/10 11:26:33;;;;;;;59.05;27.20;;;2.10;99.90;;;;;;4968631;28;20531;-79
2022/12/10 11:29:12;;;;;;;57.75;27.48;;;2.00;99.90;;;;;;4984398;28;20238;-80
2022/12/10 11:31:57;;;;;;;55.90;27.90;;;2.10;99.90;;;;;;4977662;28;20669;-79
2022/12/10 11:34:38;;;;;;;47.80;28.40;;;2.10;99.90;;;;;;4977486;28;20546;-78
2022/12/10 11:37:13;;;;;;;53.77;27.00;;;2.10;99.90;;;;;;4977714;28;20271;-79
2022/12/10 11:39:58;;;;;;;53.28;28.27;;;2.00;99.90;;;;;;4976712;28;20510;-79
2022/12/10 11:42:34;;;;;;;47.92;24.92;;;2.00;99.90;;;;;;4977872;28;20232;-80
2022/12/10 11:45:07;;;;;;;50.73;26.70;;;2.10;99.90;;;;;;4976578;28;20290;-79
2022/12/10 11:47:43;;;;;;;51.20;26.70;;;2.10;99.90;;;;;;4976267;28;20566;-80
2022/12/10 11:50:21;;;;;;;48.42;26.27;;;2.10;99.90;;;;;;4973218;28;20607;-80
2022/12/10 11:53:05;;;;;;;50.13;27.27;;;2.10;99.90;;;;;;4973833;28;20704;-79
2022/12/10 11:55:45;;;;;;;56.30;26.53;;;2.00;99.90;;;;;;4977765;28;20534;-80
2022/12/10 11:58:32;;;;;;;49.80;25.90;;;2.20;99.90;;;;;;4976900;28;20912;-79
2022/12/10 12:01:05;;;;;;;61.95;31.33;;;2.20;99.90;;;;;;4972206;28;20307;-79
2022/12/10 12:04:07;;;;;;;51.65;27.63;;;2.20;99.90;;;;;;4975957;28;20247;-79
2022/12/10 12:06:55;;;;;;;51.67;27.50;;;2.20;99.90;;;;;;4916225;29;20220;-79
2022/12/10 12:09:30;;;;;;;61.78;28.38;;;2.30;99.90;;;;;;4951293;28;20918;-79
2022/12/10 12:12:16;;;;;;;61.23;27.87;;;2.10;99.90;;;;;;4964887;28;20218;-80
2022/12/10 12:14:48;;;;;;;52.63;28.60;;;2.20;99.90;;;;;;4973075;28;20474;-79
2022/12/10 12:17:22;;;;;;;61.63;30.70;;;2.20;99.90;;;;;;4972579;28;20673;-80
2022/12/10 12:19:53;;;;;;;53.30;25.73;;;2.10;99.90;;;;;;4976629;28;20483;-79
2022/12/10 12:22:26;;;;;;;44.17;23.83;;;2.20;99.90;;;;;;4976286;28;21098;-79
2022/12/10 12:24:56;;;;;;;54.40;23.80;;;2.20;99.90;;;;;;4969464;28;20208;-80
2022/12/10 12:27:28;;;;;;;54.93;30.17;;;2.20;99.90;;;;;;4970224;28;20823;-79
2022/12/10 12:30:03;;;;;;;47.87;24.17;;;2.30;99.90;;;;;;4975249;28;21319;-80
2022/12/10 12:32:37;;;;;;;47.37;22.77;;;2.30;99.90;;;;;;4976013;28;20430;-79
2022/12/10 12:35:10;;;;;;;50.73;24.90;;;2.20;99.90;;;;;;4973855;28;20434;-79
2022/12/10 12:37:45;;;;;;;49.95;24.38;;;2.20;99.90;;;;;;4985485;28;20427;-78
2022/12/10 12:40:15;;;;;;;50.47;23.70;;;2.10;99.90;;;;;;4976979;28;20227;-79
2022/12/10 12:42:47;;;;;;;48.33;24.02;;;1.90;99.90;;;;;;4978270;28;20203;-80
2022/12/10 12:45:24;;;;;;;53.67;27.02;;;2.00;99.90;;;;;;4977437;28;20204;-82
2022/12/10 12:47:58;;;;;;;47.60;24.10;;;2.10;99.90;;;;;;4976463;28;20689;-79
2022/12/10 12:50:31;;;;;;;52.20;26.58;;;2.10;99.90;;;;;;4977811;28;21005;-80
2022/12/10 12:53:01;;;;;;;50.42;26.50;;;2.00;99.90;;;;;;4975995;28;20212;-80
2022/12/10 12:55:36;;;;;;;46.53;25.13;;;2.10;99.90;;;;;;4979788;28;20231;-80
2022/12/10 12:58:20;;;;;;;51.72;26.52;;;2.10;99.90;;;;;;4978754;28;20951;-80
2022/12/10 13:00:51;;;;;;;56.90;27.30;;;2.20;99.90;;;;;;4980624;28;20238;-79